Accueil
METAR-TAF:

METAR-TAF

Aéroports :

Aéroport international de Kunming Changshui

Kunming, Chine

latitude: 25-01N, longitude: 102-41E, altitude: 1892 m

Observation

Le bulletin a été fait il y a 10 minutes, à 23:00 UTC
Vent 8 kt de est/nord-est
Température 16°C
Humidité 94%
Pression 1017 hPa
Visibilité 10 km ou plus
Nuages épars à une hauteur de 2300 ft
Ciel couvert à une hauteur de 4000 ft

METAR: ZPPP 162300Z 07004MPS 9999 SCT023 OVC040 16/15 Q1017 NOSIG

Heure: 07:10 (23:10 UTC)

Prévision

Le bulletin a été fait il y a 9 heures et 58 minutes, à 13:12 UTC
Prévision valable du 16 à 18 UTC au 17 à 18 UTC
Vent 12 kt de nord-est
Visibilité 10 km ou plus
Quelques nuages à une hauteur de 300 ft
Nuages épars à une hauteur de 2600 ft
Nuages fragmentés à une hauteur de 4000 ft

TAF: ZPPP 161312Z 1618/1718 04006MPS 9999 FEW003 SCT026 BKN040 TX25/1708Z TN15/1623Z

Observations et prévisions météorologiques de plus de 4000 aéroports (messages METAR et TAF).

Les stations disponibles sont représentées par des disques jaunes et rouges sur la carte.

Passer la souris dessus pour voir le nom de la station.

Cliquer dessus pour voir les observations et prévisions météorologiques.

Pour changer de carte: cliquez sur les boutons verts avec une croix noire pour zoomer, sur le bouton vert avec un tiret pour effectuer un zoom arrière, ou sur les flèches vertes pour les cartes adjacentes.


METAR-TAF: